createdAt,value
2022-10-07T00:02:19.015Z,101448.84
2022-10-07T00:07:20.872Z,101444.44
2022-10-07T00:12:22.324Z,101437.06
2022-10-07T00:17:23.764Z,101437.47
2022-10-07T00:22:25.202Z,101425.50
2022-10-07T00:27:26.643Z,101424.66
2022-10-07T00:32:28.096Z,101419.88
2022-10-07T00:37:29.476Z,101404.75
2022-10-07T00:42:32.205Z,101408.72
2022-10-07T00:47:34.196Z,101410.44
2022-10-07T00:52:38.857Z,101400.75
2022-10-07T00:57:40.220Z,101409.78
2022-10-07T01:02:41.666Z,101393.81
2022-10-07T01:07:43.808Z,101390.91
2022-10-07T01:13:10.441Z,101391.53
2022-10-07T01:18:17.477Z,101384.59
2022-10-07T01:23:21.868Z,101379.13
2022-10-07T01:28:37.622Z,101371.56
2022-10-07T01:33:39.072Z,101357.72
2022-10-07T01:38:42.942Z,101355.00
2022-10-07T01:43:44.808Z,101336.53
2022-10-07T01:48:46.437Z,101330.00
2022-10-07T01:53:51.876Z,101332.09
2022-10-07T01:59:23.932Z,101325.59
2022-10-07T02:04:43.385Z,101320.13
2022-10-07T02:09:58.764Z,101317.00
2022-10-07T02:15:19.918Z,101307.13
2022-10-07T02:20:23.277Z,101296.19
2022-10-07T02:25:24.633Z,101299.75
2022-10-07T02:30:26.000Z,101289.88
2022-10-07T02:35:47.925Z,101276.66
2022-10-07T02:40:55.205Z,101281.72
2022-10-07T02:46:24.188Z,101278.13
2022-10-07T02:51:27.624Z,101277.28
2022-10-07T02:56:28.992Z,101273.94
2022-10-07T03:01:31.662Z,101271.00
2022-10-07T03:06:35.129Z,101262.81
2022-10-07T03:11:38.034Z,101261.97
2022-10-07T03:16:39.402Z,101260.28
2022-10-07T03:21:41.116Z,101254.81
2022-10-07T03:26:42.473Z,101254.63
2022-10-07T03:31:43.886Z,101246.84
2022-10-07T03:36:45.336Z,101242.44
2022-10-07T03:41:48.764Z,101239.28
2022-10-07T03:46:50.870Z,101239.72
2022-10-07T03:51:52.497Z,101236.97
2022-10-07T03:56:53.853Z,101225.00
2022-10-07T04:01:55.272Z,101216.78
2022-10-07T04:06:56.668Z,101213.25
2022-10-07T04:11:58.028Z,101208.41
2022-10-07T04:16:59.392Z,101202.09
2022-10-07T04:22:02.950Z,101199.16
2022-10-07T04:27:10.129Z,101193.69
2022-10-07T04:32:11.492Z,101190.75
2022-10-07T04:37:12.865Z,101192.44
2022-10-07T04:42:34.210Z,101187.00
2022-10-07T04:47:35.578Z,101175.22
2022-10-07T04:52:40.237Z,101185.50
2022-10-07T04:57:42.084Z,101175.84
2022-10-07T05:02:46.257Z,101169.09
2022-10-07T05:07:51.006Z,101176.88
2022-10-07T05:12:55.933Z,101170.56
2022-10-07T05:17:57.650Z,101167.66
2022-10-07T05:22:59.019Z,101159.44
2022-10-07T05:28:00.519Z,101161.97
2022-10-07T05:33:02.696Z,101152.91
2022-10-07T05:38:08.465Z,101142.41
2022-10-07T05:43:10.212Z,101136.53
2022-10-07T05:48:11.585Z,101137.38
2022-10-07T05:53:12.944Z,101137.59
2022-10-07T05:58:14.317Z,101133.81
2022-10-07T06:03:15.760Z,101130.25
2022-10-07T06:08:19.084Z,101120.56
2022-10-07T06:13:20.446Z,101127.09
2022-10-07T06:18:21.813Z,101121.38
2022-10-07T06:23:23.204Z,101119.69
2022-10-07T06:28:24.756Z,101116.75
2022-10-07T06:33:26.117Z,101116.72
2022-10-07T06:38:27.474Z,101120.69
2022-10-07T06:43:29.456Z,101110.00
2022-10-07T06:48:32.745Z,101117.34
2022-10-07T06:53:34.109Z,101109.56
2022-10-07T06:58:35.514Z,101112.13
2022-10-07T07:03:36.872Z,101111.25
2022-10-07T07:08:38.597Z,101103.44
2022-10-07T07:13:42.544Z,101098.63
2022-10-07T07:18:53.945Z,101107.22
2022-10-07T07:23:55.358Z,101101.31
2022-10-07T07:29:01.157Z,101095.00
2022-10-07T07:34:03.220Z,101081.97
2022-10-07T07:39:07.141Z,101085.13
2022-10-07T07:44:11.069Z,101079.41
2022-10-07T07:49:12.930Z,101077.09
2022-10-07T07:54:14.375Z,101075.41
2022-10-07T07:59:16.425Z,101072.50
2022-10-07T08:04:17.780Z,101056.69
2022-10-07T08:09:19.144Z,101049.59
2022-10-07T08:14:22.668Z,101043.88
2022-10-07T08:19:24.041Z,101046.22
2022-10-07T08:24:25.681Z,101044.16
2022-10-07T08:29:27.041Z,101036.59
2022-10-07T08:34:28.516Z,101036.59
2022-10-07T08:39:31.017Z,101035.53
2022-10-07T08:44:40.767Z,101027.56
2022-10-07T08:50:04.210Z,101029.19
2022-10-07T08:55:18.531Z,101024.75
2022-10-07T09:00:20.192Z,101006.66
2022-10-07T09:05:26.803Z,101010.81
2022-10-07T09:10:34.506Z,101010.38
2022-10-07T09:15:45.268Z,101010.97
2022-10-07T09:20:53.445Z,100997.28
2022-10-07T09:25:54.805Z,100990.38
2022-10-07T09:30:59.375Z,100988.66
2022-10-07T09:36:09.006Z,100975.41
2022-10-07T09:41:20.388Z,100971.63
2022-10-07T09:46:46.707Z,100954.31
2022-10-07T09:51:58.364Z,100961.28
2022-10-07T09:57:00.970Z,100957.06
2022-10-07T10:02:15.404Z,100949.47
2022-10-07T10:07:23.890Z,100933.88
2022-10-07T10:12:25.525Z,100932.84
2022-10-07T10:17:32.239Z,100926.53
2022-10-07T10:22:33.605Z,100920.41
2022-10-07T10:27:40.285Z,100909.56
2022-10-07T10:33:01.043Z,100907.47
2022-10-07T10:38:18.278Z,100898.28
2022-10-07T10:43:26.409Z,100887.19
2022-10-07T10:48:44.024Z,100867.47
2022-10-07T10:54:05.490Z,100863.25
2022-10-07T10:59:36.775Z,100848.25
2022-10-07T11:04:51.546Z,100841.25
2022-10-07T11:10:03.191Z,100838.50
2022-10-07T11:15:25.345Z,100829.09
2022-10-07T11:20:35.164Z,100811.16
2022-10-07T11:25:38.069Z,100812.44
2022-10-07T11:30:45.330Z,100808.06
2022-10-07T11:35:49.410Z,100793.13
2022-10-07T11:40:53.088Z,100783.03
2022-10-07T11:45:56.716Z,100776.34
2022-10-07T11:51:01.164Z,100774.44
2022-10-07T11:56:25.914Z,100759.38
2022-10-07T12:01:30.496Z,100733.59
2022-10-07T12:06:31.864Z,100729.63
2022-10-07T12:11:33.053Z,100730.47
2022-10-07T12:16:34.312Z,100716.47
2022-10-07T12:22:05.444Z,100716.25
2022-10-07T12:27:14.361Z,100698.88
2022-10-07T12:32:50.227Z,100696.59
2022-10-07T12:38:23.379Z,100691.78
2022-10-07T12:43:49.848Z,100682.78
2022-10-07T12:49:01.328Z,100686.41
2022-10-07T12:54:02.717Z,100678.59
2022-10-07T12:59:31.697Z,100676.09
2022-10-07T13:05:05.752Z,100667.28
2022-10-07T13:10:45.661Z,100659.75
2022-10-07T13:15:59.572Z,100657.03
2022-10-07T13:21:21.933Z,100644.22
2022-10-07T13:26:24.801Z,100643.38
2022-10-07T13:31:27.947Z,100641.72
2022-10-07T13:36:30.143Z,100633.72
2022-10-07T13:41:31.502Z,100623.41
2022-10-07T13:46:33.945Z,100616.50
2022-10-07T13:51:36.525Z,100608.47
2022-10-07T13:56:39.753Z,100601.41
2022-10-07T14:01:41.154Z,100591.75
2022-10-07T14:07:12.665Z,100585.38
2022-10-07T14:12:15.375Z,100587.97
2022-10-07T14:17:30.592Z,100581.06
2022-10-07T14:22:36.178Z,100565.28
2022-10-07T14:27:53.842Z,100562.75
2022-10-07T14:33:32.888Z,100553.28
2022-10-07T14:38:34.251Z,100546.16
2022-10-07T14:43:35.882Z,100542.22
2022-10-07T14:48:37.718Z,100529.38
2022-10-07T14:53:40.234Z,100529.53
2022-10-07T14:58:42.358Z,100524.91
2022-10-07T15:03:43.754Z,100507.06
2022-10-07T15:08:47.203Z,100502.06
2022-10-07T15:13:49.077Z,100496.75
2022-10-07T15:18:52.733Z,100486.72
2022-10-07T15:23:54.620Z,100485.22
2022-10-07T15:28:57.088Z,100482.25
2022-10-07T15:33:58.601Z,100476.44
2022-10-07T15:39:02.662Z,100474.53
2022-10-07T15:44:05.878Z,100468.69
2022-10-07T15:49:07.418Z,100468.69
2022-10-07T15:54:10.005Z,100467.84
2022-10-07T15:59:11.369Z,100464.75
2022-10-07T16:04:12.999Z,100468.38
2022-10-07T16:09:14.767Z,100460.63
2022-10-07T16:14:16.187Z,100470.94
2022-10-07T16:19:17.658Z,100469.53
2022-10-07T16:24:20.525Z,100469.97
2022-10-07T16:29:40.786Z,100469.38
2022-10-07T16:34:44.180Z,100464.28
2022-10-07T16:39:45.537Z,100458.91
2022-10-07T16:44:50.604Z,100454.25
2022-10-07T16:49:52.228Z,100459.38
2022-10-07T16:54:53.589Z,100447.22
2022-10-07T16:59:55.378Z,100457.94
2022-10-07T17:04:56.788Z,100452.94
2022-10-07T17:09:58.145Z,100457.78
2022-10-07T17:15:00.069Z,100453.22
2022-10-07T17:20:01.425Z,100458.84
2022-10-07T17:25:03.819Z,100455.03
2022-10-07T17:30:05.623Z,100457.03
2022-10-07T17:35:08.372Z,100450.28
2022-10-07T17:40:10.077Z,100450.13
2022-10-07T17:45:12.078Z,100452.63
2022-10-07T17:50:15.543Z,100446.78
2022-10-07T17:55:16.907Z,100446.31
2022-10-07T18:00:18.837Z,100443.84
2022-10-07T18:05:20.197Z,100453.78
2022-10-07T18:10:21.561Z,100444.88
2022-10-07T18:15:23.128Z,100441.19
2022-10-07T18:20:28.365Z,100438.53
2022-10-07T18:25:29.723Z,100433.91
2022-10-07T18:30:31.090Z,100425.72
2022-10-07T18:35:32.480Z,100423.81
2022-10-07T18:40:33.868Z,100413.81
2022-10-07T18:45:35.297Z,100413.66
2022-10-07T18:50:36.713Z,100402.44
2022-10-07T18:55:41.076Z,100403.78
2022-10-07T19:00:42.608Z,100396.66
2022-10-07T19:05:44.085Z,100393.69
2022-10-07T19:10:46.633Z,100384.22
2022-10-07T19:15:47.996Z,100395.34
2022-10-07T19:20:56.875Z,100393.47
2022-10-07T19:25:58.585Z,100402.97
2022-10-07T19:31:11.927Z,100402.88
2022-10-07T19:36:13.776Z,100405.22
2022-10-07T19:41:15.537Z,100411.53
2022-10-07T19:46:17.232Z,100401.41
2022-10-07T19:51:19.387Z,100401.19
2022-10-07T19:56:22.744Z,100393.34
2022-10-07T20:01:25.952Z,100377.53
2022-10-07T20:06:27.544Z,100380.53
2022-10-07T20:11:28.905Z,100387.03
2022-10-07T20:16:30.948Z,100381.56
2022-10-07T20:21:34.352Z,100380.88
2022-10-07T20:26:37.267Z,100380.88
2022-10-07T20:31:39.736Z,100371.13
2022-10-07T20:36:41.872Z,100380.16
2022-10-07T20:42:01.505Z,100369.69
2022-10-07T20:47:04.176Z,100359.94
2022-10-07T20:52:07.058Z,100353.06
2022-10-07T20:57:08.481Z,100352.22
2022-10-07T21:02:10.672Z,100340.25
2022-10-07T21:07:12.721Z,100338.69
2022-10-07T21:12:15.193Z,100339.97
2022-10-07T21:17:16.869Z,100342.84
2022-10-07T21:22:18.275Z,100331.78
2022-10-07T21:27:19.653Z,100328.44
2022-10-07T21:32:21.059Z,100329.53
2022-10-07T21:37:22.427Z,100314.19
2022-10-07T21:42:24.832Z,100307.44
2022-10-07T21:47:26.697Z,100312.06
2022-10-07T21:52:29.245Z,100314.19
2022-10-07T21:57:30.602Z,100310.13
2022-10-07T22:02:33.083Z,100296.56
2022-10-07T22:07:53.093Z,100300.75
2022-10-07T22:12:54.456Z,100287.09
2022-10-07T22:17:56.393Z,100282.19
2022-10-07T22:22:59.946Z,100286.81
2022-10-07T22:28:01.571Z,100268.09
2022-10-07T22:33:02.983Z,100261.66
2022-10-07T22:38:04.357Z,100259.06
2022-10-07T22:43:05.750Z,100254.06
2022-10-07T22:48:07.109Z,100260.13
2022-10-07T22:53:08.473Z,100251.94
2022-10-07T22:58:09.913Z,100244.66
2022-10-07T23:03:12.502Z,100239.47
2022-10-07T23:08:13.993Z,100232.56
2022-10-07T23:13:15.363Z,100231.03
2022-10-07T23:18:16.761Z,100221.66
2022-10-07T23:23:18.140Z,100226.03
2022-10-07T23:28:20.695Z,100225.38
2022-10-07T23:33:22.083Z,100218.22
2022-10-07T23:38:26.197Z,100218.00
2022-10-07T23:43:27.736Z,100221.25
2022-10-07T23:48:33.325Z,100213.91
2022-10-07T23:53:34.832Z,100211.34
2022-10-07T23:58:36.252Z,100209.28
